sensor_id;sensor_type;location;lat;lon;timestamp;P1;durP1;ratioP1;P2;durP2;ratioP2
1000;SDS011;489;47.806;12.858;2023-04-03T00:01:26;6.47;;;5.83;;
1000;SDS011;489;47.806;12.858;2023-04-03T00:03:29;8.00;;;6.47;;
1000;SDS011;489;47.806;12.858;2023-04-03T00:05:32;6.10;;;5.50;;
1000;SDS011;489;47.806;12.858;2023-04-03T00:07:34;6.20;;;5.60;;
1000;SDS011;489;47.806;12.858;2023-04-03T00:09:37;6.43;;;5.73;;
1000;SDS011;489;47.806;12.858;2023-04-03T00:11:41;5.77;;;5.23;;
1000;SDS011;489;47.806;12.858;2023-04-03T00:13:46;6.13;;;5.53;;
1000;SDS011;489;47.806;12.858;2023-04-03T00:15:49;6.67;;;6.07;;
1000;SDS011;489;47.806;12.858;2023-04-03T00:17:52;6.53;;;5.93;;
1000;SDS011;489;47.806;12.858;2023-04-03T00:19:54;6.97;;;6.10;;
1000;SDS011;489;47.806;12.858;2023-04-03T00:21:59;6.10;;;5.60;;
1000;SDS011;489;47.806;12.858;2023-04-03T00:24:02;6.60;;;5.90;;
1000;SDS011;489;47.806;12.858;2023-04-03T00:26:05;6.53;;;5.73;;
1000;SDS011;489;47.806;12.858;2023-04-03T00:28:09;5.93;;;5.23;;
1000;SDS011;489;47.806;12.858;2023-04-03T00:30:13;6.57;;;5.23;;
1000;SDS011;489;47.806;12.858;2023-04-03T00:32:17;4.80;;;4.30;;
1000;SDS011;489;47.806;12.858;2023-04-03T00:34:20;5.80;;;5.20;;
1000;SDS011;489;47.806;12.858;2023-04-03T00:36:24;6.73;;;5.40;;
1000;SDS011;489;47.806;12.858;2023-04-03T00:38:27;5.90;;;5.20;;
1000;SDS011;489;47.806;12.858;2023-04-03T00:40:33;6.27;;;5.67;;
1000;SDS011;489;47.806;12.858;2023-04-03T00:42:37;6.10;;;5.50;;
1000;SDS011;489;47.806;12.858;2023-04-03T00:47:30;6.13;;;4.93;;
1000;SDS011;489;47.806;12.858;2023-04-03T00:49:33;5.77;;;5.00;;
1000;SDS011;489;47.806;12.858;2023-04-03T00:51:36;6.07;;;5.47;;
1000;SDS011;489;47.806;12.858;2023-04-03T00:53:39;6.07;;;5.47;;
1000;SDS011;489;47.806;12.858;2023-04-03T00:55:44;5.97;;;5.23;;
1000;SDS011;489;47.806;12.858;2023-04-03T00:57:49;6.67;;;5.40;;
1000;SDS011;489;47.806;12.858;2023-04-03T00:59:53;5.27;;;4.80;;
1000;SDS011;489;47.806;12.858;2023-04-03T01:01:58;6.53;;;5.13;;
1000;SDS011;489;47.806;12.858;2023-04-03T01:04:04;6.20;;;5.33;;
1000;SDS011;489;47.806;12.858;2023-04-03T01:06:07;5.77;;;5.27;;
1000;SDS011;489;47.806;12.858;2023-04-03T01:08:10;6.00;;;5.40;;
1000;SDS011;489;47.806;12.858;2023-04-03T01:10:14;5.60;;;4.80;;
1000;SDS011;489;47.806;12.858;2023-04-03T01:12:18;5.97;;;5.23;;
1000;SDS011;489;47.806;12.858;2023-04-03T01:14:23;7.50;;;6.50;;
1000;SDS011;489;47.806;12.858;2023-04-03T01:16:25;5.73;;;5.13;;
1000;SDS011;489;47.806;12.858;2023-04-03T01:18:32;6.03;;;5.30;;
1000;SDS011;489;47.806;12.858;2023-04-03T01:20:57;6.33;;;5.70;;
1000;SDS011;489;47.806;12.858;2023-04-03T01:23:25;5.63;;;4.93;;
1000;SDS011;489;47.806;12.858;2023-04-03T01:25:33;5.37;;;4.87;;
1000;SDS011;489;47.806;12.858;2023-04-03T01:27:40;6.60;;;5.60;;
1000;SDS011;489;47.806;12.858;2023-04-03T01:29:42;6.97;;;5.10;;
1000;SDS011;489;47.806;12.858;2023-04-03T01:31:52;4.80;;;4.40;;
1000;SDS011;489;47.806;12.858;2023-04-03T01:33:55;6.30;;;5.63;;
1000;SDS011;489;47.806;12.858;2023-04-03T01:36:01;5.03;;;4.63;;
1000;SDS011;489;47.806;12.858;2023-04-03T01:38:04;6.07;;;5.37;;
1000;SDS011;489;47.806;12.858;2023-04-03T01:40:07;6.13;;;5.23;;
1000;SDS011;489;47.806;12.858;2023-04-03T01:42:10;6.40;;;5.70;;
1000;SDS011;489;47.806;12.858;2023-04-03T01:44:16;6.30;;;5.43;;
1000;SDS011;489;47.806;12.858;2023-04-03T01:46:19;5.20;;;4.60;;
1000;SDS011;489;47.806;12.858;2023-04-03T01:48:23;7.23;;;5.87;;
1000;SDS011;489;47.806;12.858;2023-04-03T01:50:26;5.40;;;4.60;;
1000;SDS011;489;47.806;12.858;2023-04-03T01:52:29;6.40;;;5.50;;
1000;SDS011;489;47.806;12.858;2023-04-03T01:54:32;5.80;;;5.20;;
1000;SDS011;489;47.806;12.858;2023-04-03T01:56:35;6.70;;;5.70;;
1000;SDS011;489;47.806;12.858;2023-04-03T01:58:39;7.70;;;5.50;;
1000;SDS011;489;47.806;12.858;2023-04-03T02:00:41;6.07;;;5.47;;
1000;SDS011;489;47.806;12.858;2023-04-03T02:02:44;7.67;;;6.20;;
1000;SDS011;489;47.806;12.858;2023-04-03T02:04:49;6.07;;;5.47;;
1000;SDS011;489;47.806;12.858;2023-04-03T02:06:52;5.97;;;5.37;;
1000;SDS011;489;47.806;12.858;2023-04-03T02:08:54;5.80;;;5.30;;
1000;SDS011;489;47.806;12.858;2023-04-03T02:11:16;6.77;;;5.27;;
1000;SDS011;489;47.806;12.858;2023-04-03T02:13:19;7.47;;;5.80;;
1000;SDS011;489;47.806;12.858;2023-04-03T02:15:21;5.90;;;5.30;;
1000;SDS011;489;47.806;12.858;2023-04-03T02:17:24;5.30;;;4.80;;
1000;SDS011;489;47.806;12.858;2023-04-03T02:19:28;7.37;;;6.07;;
1000;SDS011;489;47.806;12.858;2023-04-03T02:21:32;7.67;;;5.60;;
1000;SDS011;489;47.806;12.858;2023-04-03T02:23:35;6.07;;;5.30;;
1000;SDS011;489;47.806;12.858;2023-04-03T02:25:38;6.70;;;5.43;;
1000;SDS011;489;47.806;12.858;2023-04-03T02:27:40;6.37;;;5.77;;
1000;SDS011;489;47.806;12.858;2023-04-03T02:29:43;6.40;;;5.80;;
1000;SDS011;489;47.806;12.858;2023-04-03T02:31:45;7.03;;;5.93;;
1000;SDS011;489;47.806;12.858;2023-04-03T02:33:49;8.17;;;6.37;;
1000;SDS011;489;47.806;12.858;2023-04-03T02:35:54;6.10;;;5.43;;
1000;SDS011;489;47.806;12.858;2023-04-03T02:37:58;6.60;;;5.60;;
1000;SDS011;489;47.806;12.858;2023-04-03T02:40:01;7.10;;;6.07;;
1000;SDS011;489;47.806;12.858;2023-04-03T02:42:04;6.87;;;6.17;;
1000;SDS011;489;47.806;12.858;2023-04-03T02:44:09;7.23;;;5.90;;
1000;SDS011;489;47.806;12.858;2023-04-03T02:46:12;6.00;;;5.40;;
1000;SDS011;489;47.806;12.858;2023-04-03T02:48:16;7.47;;;6.37;;
1000;SDS011;489;47.806;12.858;2023-04-03T02:50:18;6.53;;;5.80;;
1000;SDS011;489;47.806;12.858;2023-04-03T02:52:21;8.50;;;6.50;;
1000;SDS011;489;47.806;12.858;2023-04-03T02:54:26;6.37;;;5.77;;
1000;SDS011;489;47.806;12.858;2023-04-03T02:56:35;6.80;;;5.87;;
1000;SDS011;489;47.806;12.858;2023-04-03T02:58:37;6.73;;;5.80;;
1000;SDS011;489;47.806;12.858;2023-04-03T03:00:42;8.00;;;5.90;;
1000;SDS011;489;47.806;12.858;2023-04-03T03:02:44;7.23;;;6.03;;
1000;SDS011;489;47.806;12.858;2023-04-03T03:04:47;9.23;;;7.23;;
1000;SDS011;489;47.806;12.858;2023-04-03T03:06:49;7.20;;;6.50;;
1000;SDS011;489;47.806;12.858;2023-04-03T03:08:52;8.47;;;6.63;;
1000;SDS011;489;47.806;12.858;2023-04-03T03:10:56;8.90;;;7.00;;
1000;SDS011;489;47.806;12.858;2023-04-03T03:12:59;7.27;;;6.53;;
1000;SDS011;489;47.806;12.858;2023-04-03T03:15:23;8.97;;;6.97;;
1000;SDS011;489;47.806;12.858;2023-04-03T03:17:25;8.80;;;7.20;;
1000;SDS011;489;47.806;12.858;2023-04-03T03:19:28;7.53;;;6.60;;
1000;SDS011;489;47.806;12.858;2023-04-03T03:21:31;7.53;;;6.70;;
1000;SDS011;489;47.806;12.858;2023-04-03T03:23:35;9.00;;;7.00;;
1000;SDS011;489;47.806;12.858;2023-04-03T03:25:38;7.80;;;7.00;;
1000;SDS011;489;47.806;12.858;2023-04-03T03:27:43;7.80;;;6.60;;
1000;SDS011;489;47.806;12.858;2023-04-03T03:29:46;7.40;;;6.70;;
1000;SDS011;489;47.806;12.858;2023-04-03T03:31:48;8.00;;;6.93;;
1000;SDS011;489;47.806;12.858;2023-04-03T03:33:51;8.33;;;7.13;;
1000;SDS011;489;47.806;12.858;2023-04-03T03:35:54;8.90;;;7.30;;
1000;SDS011;489;47.806;12.858;2023-04-03T03:37:56;7.97;;;6.50;;
1000;SDS011;489;47.806;12.858;2023-04-03T03:39:58;8.67;;;7.37;;
1000;SDS011;489;47.806;12.858;2023-04-03T03:42:01;7.53;;;6.63;;
1000;SDS011;489;47.806;12.858;2023-04-03T03:44:05;9.00;;;6.53;;
1000;SDS011;489;47.806;12.858;2023-04-03T03:46:08;7.83;;;6.83;;
1000;SDS011;489;47.806;12.858;2023-04-03T03:48:11;7.10;;;6.40;;
1000;SDS011;489;47.806;12.858;2023-04-03T03:50:14;7.60;;;6.70;;
1000;SDS011;489;47.806;12.858;2023-04-03T03:52:17;9.17;;;7.67;;
1000;SDS011;489;47.806;12.858;2023-04-03T03:54:19;7.27;;;6.10;;
1000;SDS011;489;47.806;12.858;2023-04-03T03:56:22;8.40;;;7.00;;
1000;SDS011;489;47.806;12.858;2023-04-03T03:58:24;7.37;;;6.07;;
1000;SDS011;489;47.806;12.858;2023-04-03T04:00:29;6.43;;;5.80;;
1000;SDS011;489;47.806;12.858;2023-04-03T04:02:32;7.23;;;6.10;;
1000;SDS011;489;47.806;12.858;2023-04-03T04:04:35;6.90;;;6.20;;
1000;SDS011;489;47.806;12.858;2023-04-03T04:06:37;7.67;;;6.17;;
1000;SDS011;489;47.806;12.858;2023-04-03T04:08:42;7.23;;;6.47;;
1000;SDS011;489;47.806;12.858;2023-04-03T04:10:46;7.30;;;5.87;;
1000;SDS011;489;47.806;12.858;2023-04-03T04:12:51;7.30;;;6.30;;
1000;SDS011;489;47.806;12.858;2023-04-03T04:14:57;6.47;;;5.40;;
1000;SDS011;489;47.806;12.858;2023-04-03T04:17:02;7.00;;;5.87;;
1000;SDS011;489;47.806;12.858;2023-04-03T04:19:05;6.27;;;5.60;;
1000;SDS011;489;47.806;12.858;2023-04-03T04:21:07;6.27;;;5.67;;
1000;SDS011;489;47.806;12.858;2023-04-03T04:23:12;7.07;;;6.37;;
1000;SDS011;489;47.806;12.858;2023-04-03T04:25:14;7.87;;;7.07;;
1000;SDS011;489;47.806;12.858;2023-04-03T04:27:17;8.20;;;6.07;;
1000;SDS011;489;47.806;12.858;2023-04-03T04:29:20;7.73;;;6.90;;
1000;SDS011;489;47.806;12.858;2023-04-03T04:31:25;6.70;;;5.73;;
1000;SDS011;489;47.806;12.858;2023-04-03T04:33:29;6.33;;;5.73;;
1000;SDS011;489;47.806;12.858;2023-04-03T04:35:34;6.50;;;5.90;;
1000;SDS011;489;47.806;12.858;2023-04-03T04:37:37;7.00;;;6.30;;
1000;SDS011;489;47.806;12.858;2023-04-03T04:39:40;8.43;;;6.30;;
1000;SDS011;489;47.806;12.858;2023-04-03T04:41:42;6.93;;;5.90;;
1000;SDS011;489;47.806;12.858;2023-04-03T04:43:45;6.53;;;5.63;;
1000;SDS011;489;47.806;12.858;2023-04-03T04:45:47;8.00;;;6.30;;
1000;SDS011;489;47.806;12.858;2023-04-03T04:47:54;6.90;;;6.17;;
1000;SDS011;489;47.806;12.858;2023-04-03T04:49:59;6.57;;;5.70;;
1000;SDS011;489;47.806;12.858;2023-04-03T04:52:03;8.70;;;6.20;;
1000;SDS011;489;47.806;12.858;2023-04-03T04:54:06;7.43;;;6.50;;
1000;SDS011;489;47.806;12.858;2023-04-03T04:56:08;6.00;;;5.30;;
1000;SDS011;489;47.806;12.858;2023-04-03T04:58:13;6.70;;;6.00;;
1000;SDS011;489;47.806;12.858;2023-04-03T05:00:16;7.23;;;6.30;;
1000;SDS011;489;47.806;12.858;2023-04-03T05:02:19;5.97;;;5.40;;
1000;SDS011;489;47.806;12.858;2023-04-03T05:04:21;6.23;;;5.63;;
1000;SDS011;489;47.806;12.858;2023-04-03T05:06:30;7.10;;;6.23;;
1000;SDS011;489;47.806;12.858;2023-04-03T05:08:35;8.47;;;6.00;;
1000;SDS011;489;47.806;12.858;2023-04-03T05:10:37;6.10;;;5.50;;
1000;SDS011;489;47.806;12.858;2023-04-03T05:12:41;6.20;;;5.60;;
1000;SDS011;489;47.806;12.858;2023-04-03T05:14:44;6.73;;;6.00;;
1000;SDS011;489;47.806;12.858;2023-04-03T05:16:46;5.83;;;5.23;;
1000;SDS011;489;47.806;12.858;2023-04-03T05:18:49;5.87;;;5.13;;
1000;SDS011;489;47.806;12.858;2023-04-03T05:20:54;5.80;;;5.20;;
1000;SDS011;489;47.806;12.858;2023-04-03T05:23:01;6.23;;;5.63;;
1000;SDS011;489;47.806;12.858;2023-04-03T05:25:05;7.97;;;5.30;;
1000;SDS011;489;47.806;12.858;2023-04-03T05:27:09;6.83;;;6.13;;
1000;SDS011;489;47.806;12.858;2023-04-03T05:29:15;5.90;;;5.40;;
1000;SDS011;489;47.806;12.858;2023-04-03T05:31:18;6.60;;;5.90;;
1000;SDS011;489;47.806;12.858;2023-04-03T05:33:22;6.47;;;5.57;;
1000;SDS011;489;47.806;12.858;2023-04-03T05:35:27;6.63;;;5.70;;
1000;SDS011;489;47.806;12.858;2023-04-03T05:37:32;6.17;;;5.57;;
1000;SDS011;489;47.806;12.858;2023-04-03T05:39:37;5.40;;;4.90;;
1000;SDS011;489;47.806;12.858;2023-04-03T05:41:42;6.57;;;5.87;;
1000;SDS011;489;47.806;12.858;2023-04-03T05:43:44;5.53;;;5.00;;
1000;SDS011;489;47.806;12.858;2023-04-03T05:45:48;6.20;;;5.60;;
1000;SDS011;489;47.806;12.858;2023-04-03T05:47:50;5.70;;;5.20;;
1000;SDS011;489;47.806;12.858;2023-04-03T05:49:53;5.93;;;4.90;;
1000;SDS011;489;47.806;12.858;2023-04-03T05:51:56;5.83;;;5.23;;
1000;SDS011;489;47.806;12.858;2023-04-03T05:54:03;6.00;;;5.40;;
1000;SDS011;489;47.806;12.858;2023-04-03T05:56:11;6.10;;;5.43;;
1000;SDS011;489;47.806;12.858;2023-04-03T05:58:14;5.83;;;4.90;;
1000;SDS011;489;47.806;12.858;2023-04-03T06:00:19;5.53;;;5.00;;
1000;SDS011;489;47.806;12.858;2023-04-03T06:02:32;5.53;;;4.83;;
1000;SDS011;489;47.806;12.858;2023-04-03T06:04:35;5.20;;;4.70;;
1000;SDS011;489;47.806;12.858;2023-04-03T06:06:45;6.00;;;4.80;;
1000;SDS011;489;47.806;12.858;2023-04-03T06:08:48;4.90;;;4.40;;
1000;SDS011;489;47.806;12.858;2023-04-03T06:10:51;5.30;;;4.80;;
1000;SDS011;489;47.806;12.858;2023-04-03T06:12:55;5.13;;;4.63;;
1000;SDS011;489;47.806;12.858;2023-04-03T06:14:58;4.73;;;4.33;;
1000;SDS011;489;47.806;12.858;2023-04-03T06:17:00;5.67;;;5.00;;
1000;SDS011;489;47.806;12.858;2023-04-03T06:19:03;10.33;;;5.40;;
1000;SDS011;489;47.806;12.858;2023-04-03T06:21:06;5.47;;;4.90;;
1000;SDS011;489;47.806;12.858;2023-04-03T06:23:09;6.20;;;5.30;;
1000;SDS011;489;47.806;12.858;2023-04-03T06:25:13;5.70;;;5.10;;
1000;SDS011;489;47.806;12.858;2023-04-03T06:27:18;6.03;;;5.47;;
1000;SDS011;489;47.806;12.858;2023-04-03T06:29:22;6.13;;;5.53;;
1000;SDS011;489;47.806;12.858;2023-04-03T06:31:25;6.53;;;4.63;;
1000;SDS011;489;47.806;12.858;2023-04-03T06:33:27;4.70;;;4.20;;
1000;SDS011;489;47.806;12.858;2023-04-03T06:35:30;5.53;;;4.63;;
1000;SDS011;489;47.806;12.858;2023-04-03T06:37:35;4.57;;;4.17;;
1000;SDS011;489;47.806;12.858;2023-04-03T06:39:38;4.90;;;4.40;;
1000;SDS011;489;47.806;12.858;2023-04-03T06:41:40;4.30;;;3.90;;
1000;SDS011;489;47.806;12.858;2023-04-03T06:43:43;6.10;;;5.00;;
1000;SDS011;489;47.806;12.858;2023-04-03T06:45:49;6.33;;;4.90;;
1000;SDS011;489;47.806;12.858;2023-04-03T06:47:52;4.87;;;4.37;;
1000;SDS011;489;47.806;12.858;2023-04-03T06:49:58;4.67;;;4.07;;
1000;SDS011;489;47.806;12.858;2023-04-03T06:52:00;4.47;;;4.07;;
1000;SDS011;489;47.806;12.858;2023-04-03T06:54:04;4.63;;;4.13;;
1000;SDS011;489;47.806;12.858;2023-04-03T06:56:08;4.87;;;4.23;;
1000;SDS011;489;47.806;12.858;2023-04-03T06:58:33;4.63;;;4.23;;
1000;SDS011;489;47.806;12.858;2023-04-03T07:00:36;4.83;;;3.80;;
1000;SDS011;489;47.806;12.858;2023-04-03T07:02:40;5.13;;;4.30;;
1000;SDS011;489;47.806;12.858;2023-04-03T07:04:43;4.33;;;3.90;;
1000;SDS011;489;47.806;12.858;2023-04-03T07:06:46;5.13;;;4.37;;
1000;SDS011;489;47.806;12.858;2023-04-03T07:08:48;4.37;;;3.97;;
1000;SDS011;489;47.806;12.858;2023-04-03T07:10:51;4.73;;;4.20;;
1000;SDS011;489;47.806;12.858;2023-04-03T07:12:54;4.03;;;3.70;;
1000;SDS011;489;47.806;12.858;2023-04-03T07:14:57;4.40;;;4.00;;
1000;SDS011;489;47.806;12.858;2023-04-03T07:16:59;4.53;;;4.10;;
1000;SDS011;489;47.806;12.858;2023-04-03T07:19:03;5.33;;;4.37;;
1000;SDS011;489;47.806;12.858;2023-04-03T07:21:06;4.57;;;4.17;;
1000;SDS011;489;47.806;12.858;2023-04-03T07:23:08;4.37;;;3.97;;
1000;SDS011;489;47.806;12.858;2023-04-03T07:25:11;8.07;;;5.10;;
1000;SDS011;489;47.806;12.858;2023-04-03T07:27:14;4.83;;;4.33;;
1000;SDS011;489;47.806;12.858;2023-04-03T07:29:18;4.43;;;4.03;;
1000;SDS011;489;47.806;12.858;2023-04-03T07:31:22;5.60;;;5.10;;
1000;SDS011;489;47.806;12.858;2023-04-03T07:33:25;4.53;;;4.13;;
1000;SDS011;489;47.806;12.858;2023-04-03T07:35:48;4.80;;;4.40;;
1000;SDS011;489;47.806;12.858;2023-04-03T07:37:51;4.87;;;4.30;;
1000;SDS011;489;47.806;12.858;2023-04-03T07:39:54;4.43;;;4.03;;
1000;SDS011;489;47.806;12.858;2023-04-03T07:41:57;4.83;;;4.00;;
1000;SDS011;489;47.806;12.858;2023-04-03T07:44:00;4.63;;;4.23;;
1000;SDS011;489;47.806;12.858;2023-04-03T07:46:04;4.47;;;4.07;;
1000;SDS011;489;47.806;12.858;2023-04-03T07:48:07;4.87;;;4.43;;
1000;SDS011;489;47.806;12.858;2023-04-03T07:50:10;5.17;;;4.60;;
1000;SDS011;489;47.806;12.858;2023-04-03T07:52:14;5.53;;;4.50;;
1000;SDS011;489;47.806;12.858;2023-04-03T07:54:17;4.60;;;4.20;;
1000;SDS011;489;47.806;12.858;2023-04-03T07:56:20;4.87;;;4.47;;
1000;SDS011;489;47.806;12.858;2023-04-03T07:58:23;4.90;;;4.40;;
1000;SDS011;489;47.806;12.858;2023-04-03T08:00:26;5.07;;;4.03;;
1000;SDS011;489;47.806;12.858;2023-04-03T08:02:30;5.77;;;4.50;;
1000;SDS011;489;47.806;12.858;2023-04-03T08:04:33;5.10;;;4.60;;
1000;SDS011;489;47.806;12.858;2023-04-03T08:06:37;4.97;;;4.47;;
1000;SDS011;489;47.806;12.858;2023-04-03T08:08:42;4.67;;;4.27;;
1000;SDS011;489;47.806;12.858;2023-04-03T08:10:47;4.70;;;4.30;;
1000;SDS011;489;47.806;12.858;2023-04-03T08:12:51;4.60;;;4.20;;
1000;SDS011;489;47.806;12.858;2023-04-03T08:14:54;5.47;;;4.70;;
1000;SDS011;489;47.806;12.858;2023-04-03T08:16:57;4.90;;;4.40;;
1000;SDS011;489;47.806;12.858;2023-04-03T08:18:59;4.90;;;4.50;;
1000;SDS011;489;47.806;12.858;2023-04-03T08:21:05;4.67;;;4.27;;
1000;SDS011;489;47.806;12.858;2023-04-03T08:23:09;5.30;;;4.20;;
1000;SDS011;489;47.806;12.858;2023-04-03T08:25:13;6.40;;;4.60;;
1000;SDS011;489;47.806;12.858;2023-04-03T08:27:18;4.30;;;3.90;;
1000;SDS011;489;47.806;12.858;2023-04-03T08:29:20;4.47;;;4.07;;
1000;SDS011;489;47.806;12.858;2023-04-03T08:31:23;4.57;;;4.17;;
1000;SDS011;489;47.806;12.858;2023-04-03T08:33:28;4.63;;;4.10;;
1000;SDS011;489;47.806;12.858;2023-04-03T08:35:31;14.97;;;13.67;;
1000;SDS011;489;47.806;12.858;2023-04-03T08:37:56;6.53;;;5.93;;
1000;SDS011;489;47.806;12.858;2023-04-03T08:39:58;5.00;;;4.20;;
1000;SDS011;489;47.806;12.858;2023-04-03T08:42:05;4.73;;;4.30;;
1000;SDS011;489;47.806;12.858;2023-04-03T08:44:15;4.77;;;4.30;;
1000;SDS011;489;47.806;12.858;2023-04-03T08:46:19;5.13;;;4.63;;
1000;SDS011;489;47.806;12.858;2023-04-03T08:48:26;5.17;;;4.60;;
1000;SDS011;489;47.806;12.858;2023-04-03T08:50:33;4.67;;;4.27;;
1000;SDS011;489;47.806;12.858;2023-04-03T08:52:41;5.23;;;4.40;;
1000;SDS011;489;47.806;12.858;2023-04-03T08:54:49;4.17;;;3.87;;
1000;SDS011;489;47.806;12.858;2023-04-03T08:56:53;4.93;;;4.07;;
1000;SDS011;489;47.806;12.858;2023-04-03T08:59:00;4.53;;;4.07;;
1000;SDS011;489;47.806;12.858;2023-04-03T09:01:05;5.70;;;4.00;;
1000;SDS011;489;47.806;12.858;2023-04-03T09:03:11;4.60;;;4.20;;
1000;SDS011;489;47.806;12.858;2023-04-03T09:05:15;5.00;;;4.50;;
1000;SDS011;489;47.806;12.858;2023-04-03T09:07:21;4.33;;;3.93;;
1000;SDS011;489;47.806;12.858;2023-04-03T09:09:30;4.00;;;3.67;;
1000;SDS011;489;47.806;12.858;2023-04-03T09:11:37;6.70;;;5.10;;
1000;SDS011;489;47.806;12.858;2023-04-03T09:13:48;4.90;;;4.40;;
1000;SDS011;489;47.806;12.858;2023-04-03T09:15:55;5.47;;;4.37;;
1000;SDS011;489;47.806;12.858;2023-04-03T09:17:59;4.30;;;3.90;;
1000;SDS011;489;47.806;12.858;2023-04-03T09:20:10;4.50;;;4.10;;
1000;SDS011;489;47.806;12.858;2023-04-03T09:22:21;5.00;;;4.47;;
1000;SDS011;489;47.806;12.858;2023-04-03T09:24:24;4.30;;;4.00;;
1000;SDS011;489;47.806;12.858;2023-04-03T09:26:29;4.20;;;3.90;;
1000;SDS011;489;47.806;12.858;2023-04-03T09:28:58;3.83;;;3.43;;
1000;SDS011;489;47.806;12.858;2023-04-03T09:31:05;3.57;;;3.27;;
1000;SDS011;489;47.806;12.858;2023-04-03T09:33:17;4.17;;;3.87;;
1000;SDS011;489;47.806;12.858;2023-04-03T09:35:23;3.93;;;3.60;;
1000;SDS011;489;47.806;12.858;2023-04-03T09:37:36;4.37;;;3.97;;
1000;SDS011;489;47.806;12.858;2023-04-03T09:42:19;4.20;;;3.80;;
1000;SDS011;489;47.806;12.858;2023-04-03T09:44:24;3.40;;;3.10;;
1000;SDS011;489;47.806;12.858;2023-04-03T09:46:32;3.47;;;3.20;;
1000;SDS011;489;47.806;12.858;2023-04-03T09:48:37;3.60;;;3.30;;
1000;SDS011;489;47.806;12.858;2023-04-03T09:50:52;3.87;;;3.57;;
1000;SDS011;489;47.806;12.858;2023-04-03T09:52:59;3.73;;;3.43;;
1000;SDS011;489;47.806;12.858;2023-04-03T09:55:08;3.53;;;2.90;;
1000;SDS011;489;47.806;12.858;2023-04-03T09:57:17;3.33;;;3.03;;
1000;SDS011;489;47.806;12.858;2023-04-03T09:59:20;3.67;;;3.30;;
1000;SDS011;489;47.806;12.858;2023-04-03T10:01:25;3.50;;;3.20;;
1000;SDS011;489;47.806;12.858;2023-04-03T10:03:31;3.73;;;3.33;;
1000;SDS011;489;47.806;12.858;2023-04-03T10:05:36;3.40;;;3.00;;
1000;SDS011;489;47.806;12.858;2023-04-03T10:07:39;3.10;;;2.90;;
1000;SDS011;489;47.806;12.858;2023-04-03T10:09:44;3.73;;;3.40;;
1000;SDS011;489;47.806;12.858;2023-04-03T10:11:58;3.17;;;2.97;;
1000;SDS011;489;47.806;12.858;2023-04-03T10:14:15;3.80;;;3.50;;
1000;SDS011;489;47.806;12.858;2023-04-03T10:16:20;3.93;;;3.60;;
1000;SDS011;489;47.806;12.858;2023-04-03T10:18:28;3.20;;;3.00;;
1000;SDS011;489;47.806;12.858;2023-04-03T10:20:35;8.23;;;7.20;;
1000;SDS011;489;47.806;12.858;2023-04-03T10:22:42;3.60;;;3.00;;
1000;SDS011;489;47.806;12.858;2023-04-03T10:25:12;4.10;;;3.70;;
1000;SDS011;489;47.806;12.858;2023-04-03T10:27:18;3.30;;;3.00;;
1000;SDS011;489;47.806;12.858;2023-04-03T10:29:27;3.37;;;3.07;;
1000;SDS011;489;47.806;12.858;2023-04-03T10:31:37;3.60;;;3.30;;
1000;SDS011;489;47.806;12.858;2023-04-03T10:33:47;3.50;;;3.20;;
1000;SDS011;489;47.806;12.858;2023-04-03T10:35:59;3.73;;;3.33;;
1000;SDS011;489;47.806;12.858;2023-04-03T10:38:12;4.03;;;3.50;;
1000;SDS011;489;47.806;12.858;2023-04-03T10:40:23;3.07;;;2.77;;
1000;SDS011;489;47.806;12.858;2023-04-03T10:42:34;3.10;;;2.80;;
1000;SDS011;489;47.806;12.858;2023-04-03T10:44:41;3.20;;;2.90;;
1000;SDS011;489;47.806;12.858;2023-04-03T10:47:24;3.37;;;3.07;;
1000;SDS011;489;47.806;12.858;2023-04-03T10:49:34;3.90;;;3.47;;
1000;SDS011;489;47.806;12.858;2023-04-03T10:51:44;3.43;;;3.13;;
1000;SDS011;489;47.806;12.858;2023-04-03T10:53:49;3.63;;;3.33;;
1000;SDS011;489;47.806;12.858;2023-04-03T10:56:20;4.20;;;3.40;;
1000;SDS011;489;47.806;12.858;2023-04-03T10:58:32;4.37;;;3.97;;
1000;SDS011;489;47.806;12.858;2023-04-03T11:00:38;4.30;;;3.90;;
1000;SDS011;489;47.806;12.858;2023-04-03T11:02:44;4.30;;;4.00;;
1000;SDS011;489;47.806;12.858;2023-04-03T11:05:15;4.37;;;3.97;;
1000;SDS011;489;47.806;12.858;2023-04-03T11:07:21;4.43;;;4.10;;
1000;SDS011;489;47.806;12.858;2023-04-03T11:09:25;4.53;;;4.23;;
1000;SDS011;489;47.806;12.858;2023-04-03T11:11:31;4.47;;;4.07;;
1000;SDS011;489;47.806;12.858;2023-04-03T11:13:38;4.70;;;4.30;;
1000;SDS011;489;47.806;12.858;2023-04-03T11:15:44;4.23;;;3.83;;
1000;SDS011;489;47.806;12.858;2023-04-03T11:17:48;3.80;;;3.50;;
1000;SDS011;489;47.806;12.858;2023-04-03T11:19:58;3.93;;;3.63;;
1000;SDS011;489;47.806;12.858;2023-04-03T11:22:06;4.00;;;3.60;;
1000;SDS011;489;47.806;12.858;2023-04-03T11:24:15;3.60;;;3.30;;
1000;SDS011;489;47.806;12.858;2023-04-03T11:26:20;3.60;;;3.40;;
1000;SDS011;489;47.806;12.858;2023-04-03T11:28:24;3.80;;;3.50;;
1000;SDS011;489;47.806;12.858;2023-04-03T11:30:28;4.03;;;3.63;;
1000;SDS011;489;47.806;12.858;2023-04-03T11:32:46;4.07;;;3.77;;
1000;SDS011;489;47.806;12.858;2023-04-03T11:35:02;8.30;;;4.87;;
1000;SDS011;489;47.806;12.858;2023-04-03T11:37:13;4.90;;;4.40;;
1000;SDS011;489;47.806;12.858;2023-04-03T11:39:20;4.23;;;3.83;;
1000;SDS011;489;47.806;12.858;2023-04-03T11:41:25;4.53;;;4.13;;
1000;SDS011;489;47.806;12.858;2023-04-03T11:43:30;4.03;;;3.60;;
1000;SDS011;489;47.806;12.858;2023-04-03T11:45:34;4.10;;;3.67;;
1000;SDS011;489;47.806;12.858;2023-04-03T11:47:46;4.37;;;3.97;;
1000;SDS011;489;47.806;12.858;2023-04-03T11:50:01;5.00;;;4.20;;
1000;SDS011;489;47.806;12.858;2023-04-03T11:52:07;4.50;;;4.10;;
1000;SDS011;489;47.806;12.858;2023-04-03T11:56:47;4.30;;;3.90;;
1000;SDS011;489;47.806;12.858;2023-04-03T12:01:43;3.90;;;3.63;;
1000;SDS011;489;47.806;12.858;2023-04-03T12:03:57;11.63;;;7.77;;
1000;SDS011;489;47.806;12.858;2023-04-03T12:08:45;4.80;;;3.93;;
1000;SDS011;489;47.806;12.858;2023-04-03T12:13:21;4.50;;;4.10;;
1000;SDS011;489;47.806;12.858;2023-04-03T12:17:54;5.10;;;4.60;;
1000;SDS011;489;47.806;12.858;2023-04-03T12:19:57;4.40;;;4.00;;
1000;SDS011;489;47.806;12.858;2023-04-03T12:24:23;5.90;;;3.70;;
1000;SDS011;489;47.806;12.858;2023-04-03T12:26:29;5.10;;;3.67;;
1000;SDS011;489;47.806;12.858;2023-04-03T12:28:38;4.77;;;4.37;;
1000;SDS011;489;47.806;12.858;2023-04-03T12:30:42;5.10;;;4.70;;
1000;SDS011;489;47.806;12.858;2023-04-03T12:32:48;4.80;;;4.40;;
1000;SDS011;489;47.806;12.858;2023-04-03T12:35:10;4.07;;;3.67;;
1000;SDS011;489;47.806;12.858;2023-04-03T12:37:23;6.70;;;4.50;;
1000;SDS011;489;47.806;12.858;2023-04-03T12:39:36;4.33;;;4.03;;
1000;SDS011;489;47.806;12.858;2023-04-03T12:41:50;4.83;;;4.20;;
1000;SDS011;489;47.806;12.858;2023-04-03T12:43:59;4.60;;;4.30;;
1000;SDS011;489;47.806;12.858;2023-04-03T12:46:22;4.40;;;3.93;;
1000;SDS011;489;47.806;12.858;2023-04-03T12:48:26;4.57;;;4.17;;
1000;SDS011;489;47.806;12.858;2023-04-03T12:50:31;5.87;;;4.37;;
1000;SDS011;489;47.806;12.858;2023-04-03T12:52:36;4.57;;;4.17;;
1000;SDS011;489;47.806;12.858;2023-04-03T12:54:42;4.27;;;3.90;;
1000;SDS011;489;47.806;12.858;2023-04-03T12:56:47;4.90;;;4.50;;
1000;SDS011;489;47.806;12.858;2023-04-03T12:58:52;5.33;;;4.57;;
1000;SDS011;489;47.806;12.858;2023-04-03T13:00:59;4.60;;;4.20;;
1000;SDS011;489;47.806;12.858;2023-04-03T13:03:03;5.00;;;4.50;;
1000;SDS011;489;47.806;12.858;2023-04-03T13:05:08;5.57;;;4.27;;
1000;SDS011;489;47.806;12.858;2023-04-03T13:07:18;6.83;;;4.33;;
1000;SDS011;489;47.806;12.858;2023-04-03T13:09:23;4.60;;;4.30;;
1000;SDS011;489;47.806;12.858;2023-04-03T13:11:30;4.57;;;4.17;;
1000;SDS011;489;47.806;12.858;2023-04-03T13:13:37;4.83;;;4.37;;
1000;SDS011;489;47.806;12.858;2023-04-03T13:15:42;4.33;;;4.00;;
1000;SDS011;489;47.806;12.858;2023-04-03T13:17:47;5.60;;;4.50;;
1000;SDS011;489;47.806;12.858;2023-04-03T13:20:06;4.47;;;4.00;;
1000;SDS011;489;47.806;12.858;2023-04-03T13:22:17;4.40;;;3.87;;